createdAt,value
2022-10-11T00:00:44.839Z,10.63
2022-10-11T00:05:46.546Z,10.61
2022-10-11T00:11:05.937Z,10.50
2022-10-11T00:16:09.883Z,10.41
2022-10-11T00:21:14.216Z,10.46
2022-10-11T00:26:16.154Z,10.52
2022-10-11T00:31:18.299Z,10.40
2022-10-11T00:36:20.428Z,10.37
2022-10-11T00:41:22.394Z,10.36
2022-10-11T00:46:30.061Z,10.28
2022-10-11T00:51:41.246Z,10.17
2022-10-11T00:56:45.997Z,10.27
2022-10-11T01:01:47.819Z,10.26
2022-10-11T01:06:50.552Z,10.21
2022-10-11T01:11:56.353Z,10.13
2022-10-11T01:17:06.222Z,10.05
2022-10-11T01:22:13.827Z,10.01
2022-10-11T01:27:25.935Z,9.87
2022-10-11T01:32:38.168Z,9.89
2022-10-11T01:37:54.175Z,9.90
2022-10-11T01:42:57.546Z,9.88
2022-10-11T01:48:11.111Z,9.78
2022-10-11T01:53:12.864Z,9.78
2022-10-11T01:58:40.981Z,9.67
2022-10-11T02:04:04.408Z,9.67
2022-10-11T02:09:20.176Z,9.61
2022-10-11T02:14:26.565Z,9.66
2022-10-11T02:19:33.224Z,9.49
2022-10-11T02:24:39.724Z,9.51
2022-10-11T02:29:43.765Z,9.55
2022-10-11T02:34:52.723Z,9.50
2022-10-11T02:39:56.600Z,9.47
2022-10-11T02:45:07.500Z,9.37
2022-10-11T02:50:12.162Z,9.32
2022-10-11T02:55:28.903Z,8.96
2022-10-11T03:01:03.075Z,9.06
2022-10-11T03:06:05.737Z,9.11
2022-10-11T03:11:07.842Z,9.00
2022-10-11T03:16:09.923Z,9.08
2022-10-11T03:21:11.730Z,9.13
2022-10-11T03:26:13.484Z,9.09
2022-10-11T03:31:15.099Z,8.99
2022-10-11T03:36:17.374Z,9.11
2022-10-11T03:41:19.083Z,9.19
2022-10-11T03:46:20.783Z,9.15
2022-10-11T03:51:22.482Z,9.24
2022-10-11T03:56:24.155Z,9.20
2022-10-11T04:01:25.958Z,9.29
2022-10-11T04:06:27.603Z,9.30
2022-10-11T04:11:29.253Z,9.20
2022-10-11T04:16:30.967Z,9.20
2022-10-11T04:21:33.792Z,9.32
2022-10-11T04:26:35.523Z,9.30
2022-10-11T04:31:37.104Z,9.20
2022-10-11T04:36:39.198Z,9.23
2022-10-11T04:41:41.040Z,9.28
2022-10-11T04:46:42.751Z,9.27
2022-10-11T04:51:44.426Z,9.19
2022-10-11T04:56:46.090Z,9.21
2022-10-11T05:01:47.976Z,9.08
2022-10-11T05:06:49.679Z,9.09
2022-10-11T05:11:51.418Z,9.02
2022-10-11T05:16:53.072Z,8.96
2022-10-11T05:21:55.386Z,8.97
2022-10-11T05:26:59.784Z,8.98
2022-10-11T05:32:04.424Z,8.91
2022-10-11T05:37:06.121Z,8.95
2022-10-11T05:42:09.926Z,8.92
2022-10-11T05:47:11.963Z,8.98
2022-10-11T05:52:13.687Z,9.05
2022-10-11T05:57:15.881Z,8.99
2022-10-11T06:02:17.563Z,9.02
2022-10-11T06:07:19.310Z,9.13
2022-10-11T06:12:21.813Z,9.14
2022-10-11T06:17:24.284Z,9.14
2022-10-11T06:22:26.782Z,9.23
2022-10-11T06:27:28.376Z,9.25
2022-10-11T06:32:30.130Z,9.28
2022-10-11T06:37:31.700Z,9.32
2022-10-11T06:42:33.308Z,9.32
2022-10-11T06:47:34.966Z,9.34
2022-10-11T06:52:36.593Z,9.46
2022-10-11T06:57:38.285Z,9.52
2022-10-11T07:02:40.068Z,9.49
2022-10-11T07:07:41.833Z,9.44
2022-10-11T07:12:44.815Z,9.41
2022-10-11T07:17:46.488Z,9.57
2022-10-11T07:22:48.092Z,9.66
2022-10-11T07:27:49.747Z,9.68
2022-10-11T07:32:52.546Z,9.65
2022-10-11T07:37:55.041Z,9.60
2022-10-11T07:42:58.189Z,9.62
2022-10-11T07:47:59.907Z,9.70
2022-10-11T07:53:01.680Z,9.72
2022-10-11T07:58:03.385Z,9.75
2022-10-11T08:03:06.220Z,9.67
2022-10-11T08:08:07.897Z,9.88
2022-10-11T08:13:09.599Z,10.47
2022-10-11T08:18:11.338Z,10.47
2022-10-11T08:23:13.355Z,10.51
2022-10-11T08:28:17.821Z,10.61
2022-10-11T08:33:21.373Z,10.84
2022-10-11T08:38:24.157Z,10.82
2022-10-11T08:43:31.826Z,10.84
2022-10-11T08:48:42.300Z,11.10
2022-10-11T08:53:53.184Z,11.29
2022-10-11T08:59:06.765Z,11.97
2022-10-11T09:04:17.211Z,12.64
2022-10-11T09:09:21.826Z,13.24
2022-10-11T09:14:35.334Z,13.60
2022-10-11T09:20:21.202Z,14.09
2022-10-11T09:25:47.190Z,13.86
2022-10-11T09:30:54.586Z,13.87
2022-10-11T09:35:57.222Z,14.34
2022-10-11T09:41:29.162Z,14.67
2022-10-11T09:46:41.310Z,14.72
2022-10-11T09:51:47.207Z,15.27
2022-10-11T09:56:48.893Z,15.46
2022-10-11T10:02:26.265Z,15.68
2022-10-11T10:07:30.875Z,15.63
2022-10-11T10:12:32.642Z,15.85
2022-10-11T10:17:36.258Z,16.16
2022-10-11T10:22:37.883Z,15.76
2022-10-11T10:27:57.817Z,16.22
2022-10-11T10:33:11.693Z,16.59
2022-10-11T10:38:24.093Z,16.65
2022-10-11T10:43:33.598Z,16.70
2022-10-11T10:49:23.623Z,16.95
2022-10-11T10:54:57.675Z,16.55
2022-10-11T11:00:03.200Z,16.46
2022-10-11T11:05:33.794Z,16.78
2022-10-11T11:10:42.980Z,16.90
2022-10-11T11:15:54.650Z,16.54
2022-10-11T11:21:02.181Z,16.92
2022-10-11T11:26:43.463Z,16.82
2022-10-11T11:32:05.050Z,17.18
2022-10-11T11:37:20.090Z,17.54
2022-10-11T11:42:34.919Z,17.98
2022-10-11T11:47:40.751Z,17.80
2022-10-11T11:52:50.773Z,18.09
2022-10-11T11:58:24.565Z,18.02
2022-10-11T12:03:41.409Z,17.79
2022-10-11T12:08:47.001Z,17.24
2022-10-11T12:13:52.555Z,16.89
2022-10-11T12:19:02.041Z,17.33
2022-10-11T12:24:19.299Z,17.35
2022-10-11T12:29:48.680Z,17.09
2022-10-11T12:35:29.028Z,17.52
2022-10-11T12:40:46.049Z,17.19
2022-10-11T12:45:48.153Z,17.18
2022-10-11T12:51:16.466Z,17.36
2022-10-11T12:56:37.762Z,17.03
2022-10-11T13:01:52.488Z,17.27
2022-10-11T13:06:57.067Z,17.10
2022-10-11T13:12:19.586Z,16.56
2022-10-11T13:17:26.033Z,16.74
2022-10-11T13:22:27.823Z,16.52
2022-10-11T13:27:29.725Z,16.42
2022-10-11T13:32:32.470Z,16.36
2022-10-11T13:37:44.244Z,16.34
2022-10-11T13:42:48.507Z,16.31
2022-10-11T13:47:52.323Z,16.17
2022-10-11T13:53:09.848Z,16.23
2022-10-11T13:58:32.252Z,16.03
2022-10-11T14:03:40.807Z,15.72
2022-10-11T14:08:42.345Z,15.80
2022-10-11T14:13:46.618Z,15.79
2022-10-11T14:19:08.135Z,15.76
2022-10-11T14:24:13.217Z,15.67
2022-10-11T14:29:23.648Z,15.60
2022-10-11T14:34:26.953Z,15.52
2022-10-11T14:39:31.133Z,15.36
2022-10-11T14:44:33.028Z,15.39
2022-10-11T14:49:37.218Z,15.39
2022-10-11T14:54:39.287Z,15.34
2022-10-11T14:59:43.163Z,15.28
2022-10-11T15:04:44.782Z,15.22
2022-10-11T15:09:46.819Z,15.02
2022-10-11T15:14:48.587Z,14.97
2022-10-11T15:19:50.908Z,14.87
2022-10-11T15:24:52.516Z,14.75
2022-10-11T15:29:54.546Z,14.72
2022-10-11T15:34:56.141Z,14.73
2022-10-11T15:39:58.201Z,14.78
2022-10-11T15:45:00.164Z,14.70
2022-10-11T15:50:34.675Z,14.63
2022-10-11T15:55:40.028Z,14.52
2022-10-11T16:00:46.439Z,14.46
2022-10-11T16:05:48.843Z,14.41
2022-10-11T16:10:52.014Z,14.38
2022-10-11T16:15:54.283Z,14.47
2022-10-11T16:20:57.213Z,14.44
2022-10-11T16:26:04.026Z,14.42
2022-10-11T16:31:18.130Z,14.33
2022-10-11T16:36:47.544Z,14.28
2022-10-11T16:41:51.758Z,14.23
2022-10-11T16:46:55.380Z,14.14
2022-10-11T16:52:04.917Z,14.08
2022-10-11T16:57:06.955Z,13.99
2022-10-11T17:02:16.890Z,13.89
2022-10-11T17:07:19.584Z,13.81
2022-10-11T17:12:26.318Z,13.71
2022-10-11T17:17:28.131Z,13.66
2022-10-11T17:22:29.795Z,13.58
2022-10-11T17:27:31.402Z,13.45
2022-10-11T17:32:33.237Z,13.26
2022-10-11T17:37:35.234Z,13.18
2022-10-11T17:42:37.025Z,13.04
2022-10-11T17:47:38.875Z,13.00
2022-10-11T17:52:41.279Z,12.97
2022-10-11T17:57:43.344Z,12.86
2022-10-11T18:02:45.130Z,12.84
2022-10-11T18:07:46.787Z,12.78
2022-10-11T18:12:54.017Z,12.67
2022-10-11T18:17:57.718Z,12.52
2022-10-11T18:23:00.125Z,12.52
2022-10-11T18:28:01.774Z,12.47
2022-10-11T18:33:10.989Z,12.36
2022-10-11T18:38:26.835Z,12.31
2022-10-11T18:43:28.707Z,12.26
2022-10-11T18:48:32.647Z,12.16
2022-10-11T18:53:36.541Z,12.06
2022-10-11T18:58:39.537Z,12.02
2022-10-11T19:03:42.193Z,11.97
2022-10-11T19:09:21.586Z,11.85
2022-10-11T19:14:28.907Z,11.83
2022-10-11T19:19:32.758Z,11.75
2022-10-11T19:24:34.517Z,11.69
2022-10-11T19:29:37.113Z,11.63
2022-10-11T19:34:39.760Z,11.59
2022-10-11T19:39:41.464Z,11.56
2022-10-11T19:44:43.142Z,11.52
2022-10-11T19:49:44.727Z,11.43
2022-10-11T19:54:46.318Z,11.37
2022-10-11T19:59:47.967Z,11.34
2022-10-11T20:04:53.326Z,11.28
2022-10-11T20:09:55.175Z,11.19
2022-10-11T20:14:59.769Z,11.19
2022-10-11T20:20:01.335Z,11.16
2022-10-11T20:25:03.728Z,11.13
2022-10-11T20:30:05.689Z,11.03
2022-10-11T20:35:10.201Z,10.99
2022-10-11T20:40:12.422Z,11.00
2022-10-11T20:45:14.287Z,10.99
2022-10-11T20:50:22.908Z,10.91
2022-10-11T20:55:24.913Z,10.77
2022-10-11T21:00:26.634Z,10.71
2022-10-11T21:05:28.425Z,10.76
2022-10-11T21:10:30.824Z,10.72
2022-10-11T21:15:32.934Z,10.69
2022-10-11T21:20:38.593Z,10.71
2022-10-11T21:25:40.511Z,10.67
2022-10-11T21:30:42.125Z,10.63
2022-10-11T21:35:43.861Z,10.60
2022-10-11T21:40:45.427Z,10.63
2022-10-11T21:45:47.263Z,10.56
2022-10-11T21:50:53.287Z,10.63
2022-10-11T21:55:59.175Z,10.61
2022-10-11T22:01:00.905Z,10.59
2022-10-11T22:06:03.746Z,10.57
2022-10-11T22:11:06.047Z,10.55
2022-10-11T22:16:10.138Z,10.54
2022-10-11T22:21:15.149Z,10.59
2022-10-11T22:26:25.388Z,10.53
2022-10-11T22:31:27.979Z,10.53
2022-10-11T22:36:30.752Z,10.57
2022-10-11T22:41:32.463Z,10.43
2022-10-11T22:46:34.090Z,10.40
2022-10-11T22:51:35.667Z,10.38
2022-10-11T22:56:37.324Z,10.33
2022-10-11T23:01:38.957Z,10.29
2022-10-11T23:06:40.541Z,10.33
2022-10-11T23:11:42.090Z,10.27
2022-10-11T23:16:43.717Z,10.16
2022-10-11T23:21:46.515Z,10.18
2022-10-11T23:26:49.134Z,10.20
2022-10-11T23:31:51.190Z,10.15
2022-10-11T23:36:52.850Z,10.09
2022-10-11T23:41:55.227Z,10.10
2022-10-11T23:46:56.821Z,10.11
2022-10-11T23:51:58.448Z,10.07
2022-10-11T23:56:59.994Z,10.05
